sensor_id;sensor_type;location;lat;lon;timestamp;temperature;humidity
18884;DHT22;9574;47.282;9.640;2024-03-25T00:01:56;5.50;99.90
18884;DHT22;9574;47.282;9.640;2024-03-25T00:04:24;5.60;99.90
18884;DHT22;9574;47.282;9.640;2024-03-25T00:06:50;5.00;99.90
18884;DHT22;9574;47.282;9.640;2024-03-25T00:16:37;4.40;99.90
18884;DHT22;9574;47.282;9.640;2024-03-25T00:21:32;4.20;99.90
18884;DHT22;9574;47.282;9.640;2024-03-25T00:28:53;3.80;99.90
18884;DHT22;9574;47.282;9.640;2024-03-25T00:38:41;3.70;99.90
18884;DHT22;9574;47.282;9.640;2024-03-25T00:46:02;3.80;99.90
18884;DHT22;9574;47.282;9.640;2024-03-25T01:03:10;4.00;99.90
18884;DHT22;9574;47.282;9.640;2024-03-25T01:08:04;4.70;99.90
18884;DHT22;9574;47.282;9.640;2024-03-25T01:10:30;4.00;99.90
18884;DHT22;9574;47.282;9.640;2024-03-25T01:12:59;4.80;99.90
18884;DHT22;9574;47.282;9.640;2024-03-25T01:17:52;4.90;99.90
18884;DHT22;9574;47.282;9.640;2024-03-25T01:22:45;4.80;99.90
18884;DHT22;9574;47.282;9.640;2024-03-25T01:25:11;4.90;99.90
18884;DHT22;9574;47.282;9.640;2024-03-25T01:27:38;4.90;99.90
18884;DHT22;9574;47.282;9.640;2024-03-25T01:30:07;4.60;99.90
18884;DHT22;9574;47.282;9.640;2024-03-25T01:32:34;4.90;99.90
18884;DHT22;9574;47.282;9.640;2024-03-25T01:35:00;4.40;99.90
18884;DHT22;9574;47.282;9.640;2024-03-25T01:37:26;4.50;99.90
18884;DHT22;9574;47.282;9.640;2024-03-25T01:39:53;4.80;99.90
18884;DHT22;9574;47.282;9.640;2024-03-25T01:42:20;4.70;99.90
18884;DHT22;9574;47.282;9.640;2024-03-25T01:44:45;4.80;99.90
18884;DHT22;9574;47.282;9.640;2024-03-25T01:47:15;4.80;99.90
18884;DHT22;9574;47.282;9.640;2024-03-25T01:49:42;4.70;99.90
18884;DHT22;9574;47.282;9.640;2024-03-25T01:52:09;5.00;99.90
18884;DHT22;9574;47.282;9.640;2024-03-25T01:54:35;5.60;99.90
18884;DHT22;9574;47.282;9.640;2024-03-25T01:57:03;4.20;99.90
18884;DHT22;9574;47.282;9.640;2024-03-25T01:59:30;5.00;99.90
18884;DHT22;9574;47.282;9.640;2024-03-25T02:01:57;4.90;99.90
18884;DHT22;9574;47.282;9.640;2024-03-25T02:04:25;4.90;99.90
18884;DHT22;9574;47.282;9.640;2024-03-25T02:06:53;4.70;99.90
18884;DHT22;9574;47.282;9.640;2024-03-25T02:09:23;4.50;99.90
18884;DHT22;9574;47.282;9.640;2024-03-25T02:11:51;4.20;99.90
18884;DHT22;9574;47.282;9.640;2024-03-25T02:14:17;5.30;99.90
18884;DHT22;9574;47.282;9.640;2024-03-25T02:16:44;4.60;99.90
18884;DHT22;9574;47.282;9.640;2024-03-25T02:19:11;4.60;99.90
18884;DHT22;9574;47.282;9.640;2024-03-25T02:21:41;4.20;99.90
18884;DHT22;9574;47.282;9.640;2024-03-25T02:24:09;4.00;99.90
18884;DHT22;9574;47.282;9.640;2024-03-25T02:26:38;4.20;99.90
18884;DHT22;9574;47.282;9.640;2024-03-25T02:29:04;4.10;99.90
18884;DHT22;9574;47.282;9.640;2024-03-25T02:33:58;4.30;99.90
18884;DHT22;9574;47.282;9.640;2024-03-25T02:36:25;4.50;99.90
18884;DHT22;9574;47.282;9.640;2024-03-25T02:43:46;4.50;99.90
18884;DHT22;9574;47.282;9.640;2024-03-25T02:48:39;4.20;99.90
18884;DHT22;9574;47.282;9.640;2024-03-25T02:53:32;4.40;99.90
18884;DHT22;9574;47.282;9.640;2024-03-25T03:00:54;4.60;99.90
18884;DHT22;9574;47.282;9.640;2024-03-25T03:05:48;4.70;99.90
18884;DHT22;9574;47.282;9.640;2024-03-25T03:08:13;4.40;99.90
18884;DHT22;9574;47.282;9.640;2024-03-25T03:13:07;4.60;99.90
18884;DHT22;9574;47.282;9.640;2024-03-25T03:15:35;4.60;99.90
18884;DHT22;9574;47.282;9.640;2024-03-25T03:18:03;4.60;99.90
18884;DHT22;9574;47.282;9.640;2024-03-25T03:20:31;4.50;99.90
18884;DHT22;9574;47.282;9.640;2024-03-25T03:22:56;4.60;99.90
18884;DHT22;9574;47.282;9.640;2024-03-25T03:25:24;4.70;99.90
18884;DHT22;9574;47.282;9.640;2024-03-25T03:32:43;4.70;99.90
18884;DHT22;9574;47.282;9.640;2024-03-25T03:35:11;4.80;99.90
18884;DHT22;9574;47.282;9.640;2024-03-25T03:37:37;4.40;99.90
18884;DHT22;9574;47.282;9.640;2024-03-25T03:52:19;4.20;99.90
18884;DHT22;9574;47.282;9.640;2024-03-25T03:54:47;3.80;99.90
18884;DHT22;9574;47.282;9.640;2024-03-25T04:02:07;4.20;99.90
18884;DHT22;9574;47.282;9.640;2024-03-25T04:07:01;4.30;99.90
18884;DHT22;9574;47.282;9.640;2024-03-25T04:09:30;4.30;99.90
18884;DHT22;9574;47.282;9.640;2024-03-25T04:24:12;4.90;99.90
18884;DHT22;9574;47.282;9.640;2024-03-25T04:26:39;4.00;99.90
18884;DHT22;9574;47.282;9.640;2024-03-25T04:29:06;4.80;99.90
18884;DHT22;9574;47.282;9.640;2024-03-25T04:31:32;5.00;99.90
18884;DHT22;9574;47.282;9.640;2024-03-25T04:41:19;4.60;99.90
18884;DHT22;9574;47.282;9.640;2024-03-25T04:43:46;4.60;99.90
18884;DHT22;9574;47.282;9.640;2024-03-25T04:46:12;4.60;99.90
18884;DHT22;9574;47.282;9.640;2024-03-25T04:48:38;4.20;99.90
18884;DHT22;9574;47.282;9.640;2024-03-25T04:51:04;4.30;99.90
18884;DHT22;9574;47.282;9.640;2024-03-25T04:53:31;4.30;99.90
18884;DHT22;9574;47.282;9.640;2024-03-25T04:55:57;4.00;99.90
18884;DHT22;9574;47.282;9.640;2024-03-25T04:58:23;4.20;99.90
18884;DHT22;9574;47.282;9.640;2024-03-25T05:00:50;4.20;99.90
18884;DHT22;9574;47.282;9.640;2024-03-25T05:03:16;4.20;99.90
18884;DHT22;9574;47.282;9.640;2024-03-25T05:05:42;4.40;99.90
18884;DHT22;9574;47.282;9.640;2024-03-25T05:10:34;4.00;99.90
18884;DHT22;9574;47.282;9.640;2024-03-25T05:13:00;4.20;99.90
18884;DHT22;9574;47.282;9.640;2024-03-25T05:15:26;4.30;99.90
18884;DHT22;9574;47.282;9.640;2024-03-25T05:17:54;3.80;99.90
18884;DHT22;9574;47.282;9.640;2024-03-25T05:30:06;5.00;99.90
18884;DHT22;9574;47.282;9.640;2024-03-25T05:35:00;4.50;99.90
18884;DHT22;9574;47.282;9.640;2024-03-25T05:37:26;4.40;99.90
18884;DHT22;9574;47.282;9.640;2024-03-25T05:39:52;4.40;99.90
18884;DHT22;9574;47.282;9.640;2024-03-25T05:42:17;4.30;99.90
18884;DHT22;9574;47.282;9.640;2024-03-25T05:44:45;4.40;99.90
18884;DHT22;9574;47.282;9.640;2024-03-25T05:47:11;4.30;99.90
18884;DHT22;9574;47.282;9.640;2024-03-25T05:49:37;4.30;99.90
18884;DHT22;9574;47.282;9.640;2024-03-25T05:52:05;4.30;99.90
18884;DHT22;9574;47.282;9.640;2024-03-25T05:56:57;4.60;99.90
18884;DHT22;9574;47.282;9.640;2024-03-25T05:59:23;4.40;99.90
18884;DHT22;9574;47.282;9.640;2024-03-25T06:01:49;4.00;99.90
18884;DHT22;9574;47.282;9.640;2024-03-25T06:04:15;3.80;99.90
18884;DHT22;9574;47.282;9.640;2024-03-25T06:09:09;3.30;99.90
18884;DHT22;9574;47.282;9.640;2024-03-25T06:11:35;3.30;99.90
18884;DHT22;9574;47.282;9.640;2024-03-25T06:14:01;3.30;99.90
18884;DHT22;9574;47.282;9.640;2024-03-25T06:16:27;3.40;99.90
18884;DHT22;9574;47.282;9.640;2024-03-25T06:21:19;3.60;99.90
18884;DHT22;9574;47.282;9.640;2024-03-25T06:23:45;3.70;99.90
18884;DHT22;9574;47.282;9.640;2024-03-25T06:26:12;3.70;99.90
18884;DHT22;9574;47.282;9.640;2024-03-25T06:28:38;3.90;99.90
18884;DHT22;9574;47.282;9.640;2024-03-25T06:31:04;3.70;99.90
18884;DHT22;9574;47.282;9.640;2024-03-25T06:33:45;4.10;99.90
18884;DHT22;9574;47.282;9.640;2024-03-25T06:39:03;4.00;99.90
18884;DHT22;9574;47.282;9.640;2024-03-25T06:41:31;4.10;99.90
18884;DHT22;9574;47.282;9.640;2024-03-25T06:43:57;4.20;99.90
18884;DHT22;9574;47.282;9.640;2024-03-25T06:48:49;4.40;99.90
18884;DHT22;9574;47.282;9.640;2024-03-25T06:53:41;4.30;99.90
18884;DHT22;9574;47.282;9.640;2024-03-25T06:56:07;4.30;99.90
18884;DHT22;9574;47.282;9.640;2024-03-25T06:58:35;4.40;99.90
18884;DHT22;9574;47.282;9.640;2024-03-25T07:01:04;4.50;99.90
18884;DHT22;9574;47.282;9.640;2024-03-25T07:03:31;4.70;99.90
18884;DHT22;9574;47.282;9.640;2024-03-25T07:05:57;4.90;99.90
18884;DHT22;9574;47.282;9.640;2024-03-25T07:08:23;5.00;99.90
18884;DHT22;9574;47.282;9.640;2024-03-25T07:10:49;5.10;99.90
18884;DHT22;9574;47.282;9.640;2024-03-25T07:13:15;5.30;99.90
18884;DHT22;9574;47.282;9.640;2024-03-25T07:15:43;5.30;99.90
18884;DHT22;9574;47.282;9.640;2024-03-25T07:18:09;5.50;99.90
18884;DHT22;9574;47.282;9.640;2024-03-25T07:20:35;5.60;99.90
18884;DHT22;9574;47.282;9.640;2024-03-25T07:23:01;5.70;99.90
18884;DHT22;9574;47.282;9.640;2024-03-25T07:25:28;5.80;99.90
18884;DHT22;9574;47.282;9.640;2024-03-25T07:27:54;6.00;99.90
18884;DHT22;9574;47.282;9.640;2024-03-25T07:30:20;6.10;99.90
18884;DHT22;9574;47.282;9.640;2024-03-25T07:32:48;6.20;99.90
18884;DHT22;9574;47.282;9.640;2024-03-25T07:35:14;6.40;99.90
18884;DHT22;9574;47.282;9.640;2024-03-25T07:37:40;6.30;99.90
18884;DHT22;9574;47.282;9.640;2024-03-25T07:40:07;6.30;99.90
18884;DHT22;9574;47.282;9.640;2024-03-25T07:42:34;6.40;99.90
18884;DHT22;9574;47.282;9.640;2024-03-25T07:45:00;6.50;99.90
18884;DHT22;9574;47.282;9.640;2024-03-25T07:47:26;6.70;99.90
18884;DHT22;9574;47.282;9.640;2024-03-25T07:49:54;6.90;99.90
18884;DHT22;9574;47.282;9.640;2024-03-25T07:52:20;7.10;99.90
18884;DHT22;9574;47.282;9.640;2024-03-25T07:54:46;7.20;99.90
18884;DHT22;9574;47.282;9.640;2024-03-25T07:57:12;7.40;99.90
18884;DHT22;9574;47.282;9.640;2024-03-25T07:59:38;7.40;99.90
18884;DHT22;9574;47.282;9.640;2024-03-25T08:02:04;7.50;99.90
18884;DHT22;9574;47.282;9.640;2024-03-25T08:04:30;7.50;99.90
18884;DHT22;9574;47.282;9.640;2024-03-25T08:06:57;7.50;99.90
18884;DHT22;9574;47.282;9.640;2024-03-25T08:09:23;7.60;99.90
18884;DHT22;9574;47.282;9.640;2024-03-25T08:11:49;7.80;99.90
18884;DHT22;9574;47.282;9.640;2024-03-25T08:14:15;8.40;99.90
18884;DHT22;9574;47.282;9.640;2024-03-25T08:16:41;8.40;99.90
18884;DHT22;9574;47.282;9.640;2024-03-25T08:19:07;8.50;99.90
18884;DHT22;9574;47.282;9.640;2024-03-25T08:21:33;8.40;99.90
18884;DHT22;9574;47.282;9.640;2024-03-25T08:24:00;8.40;99.90
18884;DHT22;9574;47.282;9.640;2024-03-25T08:28:52;8.80;99.90
18884;DHT22;9574;47.282;9.640;2024-03-25T08:31:18;9.00;99.90
18884;DHT22;9574;47.282;9.640;2024-03-25T08:33:44;9.00;99.90
18884;DHT22;9574;47.282;9.640;2024-03-25T08:36:10;9.20;99.90
18884;DHT22;9574;47.282;9.640;2024-03-25T08:38:36;9.30;99.90
18884;DHT22;9574;47.282;9.640;2024-03-25T08:41:04;9.50;99.90
18884;DHT22;9574;47.282;9.640;2024-03-25T08:43:30;9.60;99.90
18884;DHT22;9574;47.282;9.640;2024-03-25T08:45:56;9.60;99.90
18884;DHT22;9574;47.282;9.640;2024-03-25T08:48:22;9.40;99.90
18884;DHT22;9574;47.282;9.640;2024-03-25T08:50:48;9.60;99.90
18884;DHT22;9574;47.282;9.640;2024-03-25T08:53:14;10.00;99.90
18884;DHT22;9574;47.282;9.640;2024-03-25T08:55:44;10.20;99.90
18884;DHT22;9574;47.282;9.640;2024-03-25T08:58:12;10.40;99.90
18884;DHT22;9574;47.282;9.640;2024-03-25T09:00:38;10.70;99.90
18884;DHT22;9574;47.282;9.640;2024-03-25T09:03:04;10.80;99.90
18884;DHT22;9574;47.282;9.640;2024-03-25T09:05:30;11.00;99.90
18884;DHT22;9574;47.282;9.640;2024-03-25T09:07:56;11.10;99.90
18884;DHT22;9574;47.282;9.640;2024-03-25T09:10:22;11.20;99.90
18884;DHT22;9574;47.282;9.640;2024-03-25T09:13:07;11.00;99.90
18884;DHT22;9574;47.282;9.640;2024-03-25T09:15:34;10.70;99.90
18884;DHT22;9574;47.282;9.640;2024-03-25T09:18:00;11.00;99.90
18884;DHT22;9574;47.282;9.640;2024-03-25T09:20:26;11.10;99.90
18884;DHT22;9574;47.282;9.640;2024-03-25T09:22:52;11.00;99.90
18884;DHT22;9574;47.282;9.640;2024-03-25T09:25:18;11.10;99.90
18884;DHT22;9574;47.282;9.640;2024-03-25T09:27:46;11.10;99.90
18884;DHT22;9574;47.282;9.640;2024-03-25T09:30:12;11.50;99.90
18884;DHT22;9574;47.282;9.640;2024-03-25T09:32:40;11.80;99.90
18884;DHT22;9574;47.282;9.640;2024-03-25T09:35:06;12.10;99.90
18884;DHT22;9574;47.282;9.640;2024-03-25T09:37:32;12.20;99.90
18884;DHT22;9574;47.282;9.640;2024-03-25T09:39:58;12.50;99.90
18884;DHT22;9574;47.282;9.640;2024-03-25T09:42:26;12.70;99.90
18884;DHT22;9574;47.282;9.640;2024-03-25T09:44:53;13.00;99.90
18884;DHT22;9574;47.282;9.640;2024-03-25T09:47:20;13.20;99.90
18884;DHT22;9574;47.282;9.640;2024-03-25T09:49:48;13.30;99.90
18884;DHT22;9574;47.282;9.640;2024-03-25T09:52:14;13.40;99.90
18884;DHT22;9574;47.282;9.640;2024-03-25T09:54:40;12.60;99.90
18884;DHT22;9574;47.282;9.640;2024-03-25T09:57:06;13.40;99.90
18884;DHT22;9574;47.282;9.640;2024-03-25T09:59:32;13.90;99.90
18884;DHT22;9574;47.282;9.640;2024-03-25T10:01:59;13.40;99.90
18884;DHT22;9574;47.282;9.640;2024-03-25T10:04:26;13.40;99.90
18884;DHT22;9574;47.282;9.640;2024-03-25T10:06:54;13.40;99.90
18884;DHT22;9574;47.282;9.640;2024-03-25T10:09:20;13.80;99.90
18884;DHT22;9574;47.282;9.640;2024-03-25T10:11:47;13.80;99.90
18884;DHT22;9574;47.282;9.640;2024-03-25T10:14:15;13.70;99.90
18884;DHT22;9574;47.282;9.640;2024-03-25T10:16:41;13.50;99.90
18884;DHT22;9574;47.282;9.640;2024-03-25T10:19:07;13.80;99.90
18884;DHT22;9574;47.282;9.640;2024-03-25T10:21:33;13.80;99.90
18884;DHT22;9574;47.282;9.640;2024-03-25T10:24:00;13.70;99.90
18884;DHT22;9574;47.282;9.640;2024-03-25T10:26:27;14.10;99.90
18884;DHT22;9574;47.282;9.640;2024-03-25T10:29:04;14.10;99.90
18884;DHT22;9574;47.282;9.640;2024-03-25T10:31:30;14.20;99.90
18884;DHT22;9574;47.282;9.640;2024-03-25T10:33:56;14.40;99.90
18884;DHT22;9574;47.282;9.640;2024-03-25T10:36:22;14.40;99.90
18884;DHT22;9574;47.282;9.640;2024-03-25T10:38:49;14.30;99.90
18884;DHT22;9574;47.282;9.640;2024-03-25T10:41:18;14.20;99.90
18884;DHT22;9574;47.282;9.640;2024-03-25T10:43:47;14.00;99.90
18884;DHT22;9574;47.282;9.640;2024-03-25T10:46:17;13.80;99.90
18884;DHT22;9574;47.282;9.640;2024-03-25T10:48:48;14.00;99.90
18884;DHT22;9574;47.282;9.640;2024-03-25T10:51:20;14.10;99.90
18884;DHT22;9574;47.282;9.640;2024-03-25T10:53:48;14.10;99.90
18884;DHT22;9574;47.282;9.640;2024-03-25T10:56:15;14.30;99.90
18884;DHT22;9574;47.282;9.640;2024-03-25T11:01:10;14.90;99.90
18884;DHT22;9574;47.282;9.640;2024-03-25T11:03:37;14.80;99.90
18884;DHT22;9574;47.282;9.640;2024-03-25T11:06:03;14.80;99.90
18884;DHT22;9574;47.282;9.640;2024-03-25T11:08:31;14.90;99.90
18884;DHT22;9574;47.282;9.640;2024-03-25T11:10:58;14.80;99.90
18884;DHT22;9574;47.282;9.640;2024-03-25T11:15:51;14.80;99.90
18884;DHT22;9574;47.282;9.640;2024-03-25T11:18:21;15.80;99.90
18884;DHT22;9574;47.282;9.640;2024-03-25T11:25:41;15.90;99.90
18884;DHT22;9574;47.282;9.640;2024-03-25T11:28:08;16.00;99.90
18884;DHT22;9574;47.282;9.640;2024-03-25T11:30:36;16.00;99.90
18884;DHT22;9574;47.282;9.640;2024-03-25T11:33:04;16.20;99.90
18884;DHT22;9574;47.282;9.640;2024-03-25T11:35:30;15.90;99.90
18884;DHT22;9574;47.282;9.640;2024-03-25T11:38:02;16.50;99.90
18884;DHT22;9574;47.282;9.640;2024-03-25T11:40:28;16.20;99.90
18884;DHT22;9574;47.282;9.640;2024-03-25T11:42:54;16.20;99.90
18884;DHT22;9574;47.282;9.640;2024-03-25T11:45:21;16.50;99.90
18884;DHT22;9574;47.282;9.640;2024-03-25T11:47:48;16.50;99.90
18884;DHT22;9574;47.282;9.640;2024-03-25T11:50:17;16.50;99.90
18884;DHT22;9574;47.282;9.640;2024-03-25T11:52:44;16.70;99.90
18884;DHT22;9574;47.282;9.640;2024-03-25T11:55:10;16.70;99.90
18884;DHT22;9574;47.282;9.640;2024-03-25T11:57:37;16.70;99.90
18884;DHT22;9574;47.282;9.640;2024-03-25T12:00:04;16.60;99.90
18884;DHT22;9574;47.282;9.640;2024-03-25T12:02:32;16.10;99.90
18884;DHT22;9574;47.282;9.640;2024-03-25T12:04:58;16.50;99.90
18884;DHT22;9574;47.282;9.640;2024-03-25T12:07:25;16.30;99.90
18884;DHT22;9574;47.282;9.640;2024-03-25T12:09:51;16.50;99.90
18884;DHT22;9574;47.282;9.640;2024-03-25T12:12:35;16.60;99.90
18884;DHT22;9574;47.282;9.640;2024-03-25T12:15:02;16.80;99.90
18884;DHT22;9574;47.282;9.640;2024-03-25T12:17:29;16.80;99.90
18884;DHT22;9574;47.282;9.640;2024-03-25T12:19:59;17.00;99.90
18884;DHT22;9574;47.282;9.640;2024-03-25T12:22:27;16.90;99.90
18884;DHT22;9574;47.282;9.640;2024-03-25T12:24:52;16.70;99.90
18884;DHT22;9574;47.282;9.640;2024-03-25T12:27:19;16.90;99.90
18884;DHT22;9574;47.282;9.640;2024-03-25T12:29:45;16.90;99.90
18884;DHT22;9574;47.282;9.640;2024-03-25T12:32:11;16.90;99.90
18884;DHT22;9574;47.282;9.640;2024-03-25T12:34:36;16.90;99.90
18884;DHT22;9574;47.282;9.640;2024-03-25T12:37:03;17.10;99.90
18884;DHT22;9574;47.282;9.640;2024-03-25T12:39:31;16.90;99.90
18884;DHT22;9574;47.282;9.640;2024-03-25T12:41:57;16.80;99.90
18884;DHT22;9574;47.282;9.640;2024-03-25T12:44:23;16.80;99.90
18884;DHT22;9574;47.282;9.640;2024-03-25T12:46:49;16.80;99.90
18884;DHT22;9574;47.282;9.640;2024-03-25T12:49:16;16.70;99.90
18884;DHT22;9574;47.282;9.640;2024-03-25T12:51:42;16.70;99.90
18884;DHT22;9574;47.282;9.640;2024-03-25T12:54:08;16.80;99.90
18884;DHT22;9574;47.282;9.640;2024-03-25T12:56:35;17.10;99.90
18884;DHT22;9574;47.282;9.640;2024-03-25T12:59:01;16.70;99.90
18884;DHT22;9574;47.282;9.640;2024-03-25T13:01:27;16.70;99.90
18884;DHT22;9574;47.282;9.640;2024-03-25T13:03:53;16.90;99.90
18884;DHT22;9574;47.282;9.640;2024-03-25T13:06:19;16.90;99.90
18884;DHT22;9574;47.282;9.640;2024-03-25T13:08:45;16.70;99.90
18884;DHT22;9574;47.282;9.640;2024-03-25T13:11:11;17.00;99.90
18884;DHT22;9574;47.282;9.640;2024-03-25T13:13:39;17.30;99.90
18884;DHT22;9574;47.282;9.640;2024-03-25T13:16:05;17.00;99.90
18884;DHT22;9574;47.282;9.640;2024-03-25T13:18:31;17.20;99.90
18884;DHT22;9574;47.282;9.640;2024-03-25T13:20:58;17.40;99.90
18884;DHT22;9574;47.282;9.640;2024-03-25T13:23:24;17.60;99.90
18884;DHT22;9574;47.282;9.640;2024-03-25T13:25:50;17.70;99.90
18884;DHT22;9574;47.282;9.640;2024-03-25T13:28:16;17.80;99.90
18884;DHT22;9574;47.282;9.640;2024-03-25T13:30:43;17.90;99.90
18884;DHT22;9574;47.282;9.640;2024-03-25T13:33:09;18.00;99.90
18884;DHT22;9574;47.282;9.640;2024-03-25T13:35:35;18.10;99.90
18884;DHT22;9574;47.282;9.640;2024-03-25T13:38:01;18.20;99.90
18884;DHT22;9574;47.282;9.640;2024-03-25T13:40:27;17.90;99.90
18884;DHT22;9574;47.282;9.640;2024-03-25T13:42:53;17.20;99.90
18884;DHT22;9574;47.282;9.640;2024-03-25T13:45:20;17.40;99.90
18884;DHT22;9574;47.282;9.640;2024-03-25T13:47:47;17.60;99.90
18884;DHT22;9574;47.282;9.640;2024-03-25T13:50:13;17.90;99.90
18884;DHT22;9574;47.282;9.640;2024-03-25T13:52:39;18.10;98.20
18884;DHT22;9574;47.282;9.640;2024-03-25T13:55:05;18.20;99.90
18884;DHT22;9574;47.282;9.640;2024-03-25T13:57:31;18.40;99.90
18884;DHT22;9574;47.282;9.640;2024-03-25T13:59:57;18.40;99.90
18884;DHT22;9574;47.282;9.640;2024-03-25T14:02:23;18.20;99.90
18884;DHT22;9574;47.282;9.640;2024-03-25T14:04:51;18.10;99.90
18884;DHT22;9574;47.282;9.640;2024-03-25T14:07:17;18.20;99.90
18884;DHT22;9574;47.282;9.640;2024-03-25T14:09:44;18.20;99.90
18884;DHT22;9574;47.282;9.640;2024-03-25T14:12:10;18.20;99.90
18884;DHT22;9574;47.282;9.640;2024-03-25T14:14:36;18.20;99.50
18884;DHT22;9574;47.282;9.640;2024-03-25T14:17:02;18.00;99.90
18884;DHT22;9574;47.282;9.640;2024-03-25T14:19:28;18.00;99.90
18884;DHT22;9574;47.282;9.640;2024-03-25T14:21:55;17.80;99.90
18884;DHT22;9574;47.282;9.640;2024-03-25T14:24:21;17.90;99.90
18884;DHT22;9574;47.282;9.640;2024-03-25T14:26:47;18.10;99.90
18884;DHT22;9574;47.282;9.640;2024-03-25T14:29:13;18.10;99.90
18884;DHT22;9574;47.282;9.640;2024-03-25T14:31:39;18.00;99.90
18884;DHT22;9574;47.282;9.640;2024-03-25T14:34:05;17.80;99.90
18884;DHT22;9574;47.282;9.640;2024-03-25T14:36:31;17.30;99.90
18884;DHT22;9574;47.282;9.640;2024-03-25T14:38:58;17.30;99.90
18884;DHT22;9574;47.282;9.640;2024-03-25T14:41:24;17.50;99.90
18884;DHT22;9574;47.282;9.640;2024-03-25T14:43:50;17.50;99.90
18884;DHT22;9574;47.282;9.640;2024-03-25T14:46:16;17.20;99.90
18884;DHT22;9574;47.282;9.640;2024-03-25T14:48:42;17.50;99.90
18884;DHT22;9574;47.282;9.640;2024-03-25T14:51:08;17.80;99.90
18884;DHT22;9574;47.282;9.640;2024-03-25T14:53:34;17.50;99.90
18884;DHT22;9574;47.282;9.640;2024-03-25T14:56:02;17.70;99.90
18884;DHT22;9574;47.282;9.640;2024-03-25T14:58:28;17.80;99.90
18884;DHT22;9574;47.282;9.640;2024-03-25T15:00:54;18.00;98.90
18884;DHT22;9574;47.282;9.640;2024-03-25T15:03:20;18.20;99.90
18884;DHT22;9574;47.282;9.640;2024-03-25T15:05:46;18.30;99.90
18884;DHT22;9574;47.282;9.640;2024-03-25T15:08:12;18.20;99.90
18884;DHT22;9574;47.282;9.640;2024-03-25T15:10:38;18.40;99.70
18884;DHT22;9574;47.282;9.640;2024-03-25T15:13:05;18.40;98.60
18884;DHT22;9574;47.282;9.640;2024-03-25T15:15:31;18.50;97.60
18884;DHT22;9574;47.282;9.640;2024-03-25T15:17:57;18.40;98.90
18884;DHT22;9574;47.282;9.640;2024-03-25T15:20:23;18.50;97.30
18884;DHT22;9574;47.282;9.640;2024-03-25T15:22:49;18.20;98.70
18884;DHT22;9574;47.282;9.640;2024-03-25T15:25:15;17.80;98.90
18884;DHT22;9574;47.282;9.640;2024-03-25T15:27:41;18.10;99.40
18884;DHT22;9574;47.282;9.640;2024-03-25T15:30:09;18.20;96.00
18884;DHT22;9574;47.282;9.640;2024-03-25T15:32:35;18.20;96.90
18884;DHT22;9574;47.282;9.640;2024-03-25T15:35:01;18.30;98.80
18884;DHT22;9574;47.282;9.640;2024-03-25T15:37:27;18.50;97.90
18884;DHT22;9574;47.282;9.640;2024-03-25T15:39:53;18.70;97.70
18884;DHT22;9574;47.282;9.640;2024-03-25T15:42:19;18.70;97.10
18884;DHT22;9574;47.282;9.640;2024-03-25T15:44:45;18.50;96.60
18884;DHT22;9574;47.282;9.640;2024-03-25T15:47:13;18.50;96.20
18884;DHT22;9574;47.282;9.640;2024-03-25T15:49:39;18.50;96.70
18884;DHT22;9574;47.282;9.640;2024-03-25T15:52:05;18.50;97.10
18884;DHT22;9574;47.282;9.640;2024-03-25T15:54:31;18.50;95.10
18884;DHT22;9574;47.282;9.640;2024-03-25T15:56:57;18.40;96.80
18884;DHT22;9574;47.282;9.640;2024-03-25T15:59:23;18.40;96.40
18884;DHT22;9574;47.282;9.640;2024-03-25T16:01:49;18.40;96.00
18884;DHT22;9574;47.282;9.640;2024-03-25T16:04:16;18.30;96.70
18884;DHT22;9574;47.282;9.640;2024-03-25T16:06:42;18.30;98.40
18884;DHT22;9574;47.282;9.640;2024-03-25T16:09:08;18.10;98.30
18884;DHT22;9574;47.282;9.640;2024-03-25T16:11:34;18.00;98.40
18884;DHT22;9574;47.282;9.640;2024-03-25T16:14:02;17.80;98.30
18884;DHT22;9574;47.282;9.640;2024-03-25T16:16:28;17.70;99.20
18884;DHT22;9574;47.282;9.640;2024-03-25T16:18:54;17.60;99.80
18884;DHT22;9574;47.282;9.640;2024-03-25T16:21:21;17.40;99.90
18884;DHT22;9574;47.282;9.640;2024-03-25T16:23:47;17.30;99.20
18884;DHT22;9574;47.282;9.640;2024-03-25T16:26:13;17.20;99.90
18884;DHT22;9574;47.282;9.640;2024-03-25T16:28:39;17.10;99.90
18884;DHT22;9574;47.282;9.640;2024-03-25T16:31:05;17.00;99.90
18884;DHT22;9574;47.282;9.640;2024-03-25T16:33:31;16.90;99.90
18884;DHT22;9574;47.282;9.640;2024-03-25T16:35:57;16.90;99.90
18884;DHT22;9574;47.282;9.640;2024-03-25T16:38:25;16.90;99.90
18884;DHT22;9574;47.282;9.640;2024-03-25T16:40:51;16.60;99.90
18884;DHT22;9574;47.282;9.640;2024-03-25T16:43:17;16.50;99.90
18884;DHT22;9574;47.282;9.640;2024-03-25T16:45:43;16.60;99.90
18884;DHT22;9574;47.282;9.640;2024-03-25T16:48:10;16.40;99.90
18884;DHT22;9574;47.282;9.640;2024-03-25T16:50:36;16.30;99.90
18884;DHT22;9574;47.282;9.640;2024-03-25T16:53:02;16.30;99.90
18884;DHT22;9574;47.282;9.640;2024-03-25T16:55:29;16.20;99.90
18884;DHT22;9574;47.282;9.640;2024-03-25T16:57:55;15.80;99.90
18884;DHT22;9574;47.282;9.640;2024-03-25T17:00:21;15.50;99.90
18884;DHT22;9574;47.282;9.640;2024-03-25T17:02:47;15.10;99.90
18884;DHT22;9574;47.282;9.640;2024-03-25T17:05:13;14.60;99.90
18884;DHT22;9574;47.282;9.640;2024-03-25T17:07:39;14.10;99.90
18884;DHT22;9574;47.282;9.640;2024-03-25T17:10:06;13.70;99.90
18884;DHT22;9574;47.282;9.640;2024-03-25T17:12:34;13.30;99.90
18884;DHT22;9574;47.282;9.640;2024-03-25T17:15:00;12.90;99.90
18884;DHT22;9574;47.282;9.640;2024-03-25T17:17:26;12.70;99.90
18884;DHT22;9574;47.282;9.640;2024-03-25T17:19:52;12.40;99.90
18884;DHT22;9574;47.282;9.640;2024-03-25T17:22:18;12.40;99.90
18884;DHT22;9574;47.282;9.640;2024-03-25T17:24:44;12.20;99.90
18884;DHT22;9574;47.282;9.640;2024-03-25T17:27:10;12.00;99.90
18884;DHT22;9574;47.282;9.640;2024-03-25T17:29:37;11.90;99.90
18884;DHT22;9574;47.282;9.640;2024-03-25T17:32:03;11.70;99.90
18884;DHT22;9574;47.282;9.640;2024-03-25T17:34:29;11.60;99.90
18884;DHT22;9574;47.282;9.640;2024-03-25T17:36:55;11.40;99.90
18884;DHT22;9574;47.282;9.640;2024-03-25T17:39:22;11.30;99.90
18884;DHT22;9574;47.282;9.640;2024-03-25T17:41:48;11.20;99.90
18884;DHT22;9574;47.282;9.640;2024-03-25T17:44:14;11.10;99.90
18884;DHT22;9574;47.282;9.640;2024-03-25T17:46:41;11.10;99.90
18884;DHT22;9574;47.282;9.640;2024-03-25T17:49:07;11.10;99.90
18884;DHT22;9574;47.282;9.640;2024-03-25T17:51:33;11.00;99.90
18884;DHT22;9574;47.282;9.640;2024-03-25T17:53:59;10.90;99.90
18884;DHT22;9574;47.282;9.640;2024-03-25T17:56:25;10.70;99.90
18884;DHT22;9574;47.282;9.640;2024-03-25T17:58:51;10.60;99.90
18884;DHT22;9574;47.282;9.640;2024-03-25T18:01:17;10.50;99.90
18884;DHT22;9574;47.282;9.640;2024-03-25T18:03:45;10.50;99.90
18884;DHT22;9574;47.282;9.640;2024-03-25T18:06:11;10.50;99.90
18884;DHT22;9574;47.282;9.640;2024-03-25T18:08:37;10.50;99.90
18884;DHT22;9574;47.282;9.640;2024-03-25T18:11:03;10.40;99.90
18884;DHT22;9574;47.282;9.640;2024-03-25T18:13:29;10.40;99.90
18884;DHT22;9574;47.282;9.640;2024-03-25T18:15:56;10.30;99.90
18884;DHT22;9574;47.282;9.640;2024-03-25T18:18:22;10.20;99.90
18884;DHT22;9574;47.282;9.640;2024-03-25T18:20:49;10.10;99.90
18884;DHT22;9574;47.282;9.640;2024-03-25T18:23:15;10.00;99.90
18884;DHT22;9574;47.282;9.640;2024-03-25T18:25:41;9.90;99.90